Time;durP1;ratioP1;P1;durP2;ratioP2;P2;SDS_P1;SDS_P2;PMS_P1;PMS_P2;Temp;Humidity;BMP_temperature;BMP_pressure;BME280_temperature;BME280_humidity;BME280_pressure;Samples;Min_cycle;Max_cycle;Signal;HPM_P1;HPM_P2
2022/01/23 00:02:08;;;;;;;17.90;10.20;;;2.90;99.90;;;;;;5034091;28;20632;-75
2022/01/23 00:04:34;;;;;;;18.53;10.80;;;3.00;99.90;;;;;;5033628;28;20215;-75
2022/01/23 00:07:04;;;;;;;20.13;11.13;;;2.90;99.90;;;;;;5034035;28;20207;-75
2022/01/23 00:09:30;;;;;;;15.77;9.97;;;2.70;99.90;;;;;;5034030;28;20188;-75
2022/01/23 00:11:57;;;;;;;14.50;10.07;;;2.70;99.90;;;;;;5033895;28;20182;-75
2022/01/23 00:17:40;;;;;;;17.43;10.73;;;2.90;99.90;;;;;;5033772;28;20214;-75
2022/01/23 00:19:59;;;;;;;19.67;11.53;;;2.80;99.90;;;;;;5030660;28;20246;-75
2022/01/23 00:22:55;;;;;;;18.23;11.30;;;2.70;99.90;;;;;;5033416;28;20610;-75
2022/01/23 00:30:53;;;;;;;17.50;11.30;;;2.60;99.90;;;;;;5033772;28;20187;-75
2022/01/23 00:33:19;;;;;;;16.40;11.17;;;2.70;99.90;;;;;;5062740;22;20232;-79
2022/01/23 00:35:46;;;;;;;17.03;11.67;;;2.70;99.90;;;;;;5053276;28;20279;-79
2022/01/23 00:38:13;;;;;;;18.50;12.50;;;2.60;99.90;;;;;;5054247;28;20179;-79
2022/01/23 00:40:40;;;;;;;19.33;12.23;;;2.70;99.90;;;;;;5054555;28;20176;-81
2022/01/23 00:43:14;;;;;;;18.13;11.97;;;2.70;99.90;;;;;;5051622;28;20545;-79
2022/01/23 00:45:50;;;;;;;16.63;11.33;;;2.70;99.90;;;;;;5052646;28;20206;-81
2022/01/23 00:48:16;;;;;;;17.27;11.33;;;2.80;99.90;;;;;;5047828;28;20167;-80
2022/01/23 00:50:43;;;;;;;18.10;11.60;;;2.80;99.90;;;;;;5046166;28;20255;-80
2022/01/23 00:53:11;;;;;;;17.20;12.20;;;2.70;99.90;;;;;;5044939;28;20232;-81
2022/01/23 00:55:42;;;;;;;23.23;13.33;;;2.70;99.90;;;;;;5044227;28;20254;-81
2022/01/23 00:58:08;;;;;;;20.93;12.53;;;2.70;99.90;;;;;;5045181;28;20521;-80
2022/01/23 01:00:34;;;;;;;18.97;12.40;;;2.70;99.90;;;;;;5044705;28;20176;-80
2022/01/23 01:03:01;;;;;;;20.90;12.60;;;2.70;99.90;;;;;;5043771;28;20179;-81
2022/01/23 01:05:27;;;;;;;16.80;11.40;;;2.80;99.90;;;;;;5043831;28;20203;-80
2022/01/23 01:07:58;;;;;;;18.80;12.23;;;2.80;99.90;;;;;;5044277;28;20179;-80
2022/01/23 01:10:32;;;;;;;17.63;12.00;;;2.80;99.90;;;;;;5045526;28;20180;-80
2022/01/23 01:13:00;;;;;;;22.10;13.00;;;2.90;99.90;;;;;;5044904;28;20609;-80
2022/01/23 01:15:52;;;;;;;20.07;12.73;;;2.80;99.90;;;;;;5043488;28;20204;-80
2022/01/23 01:31:58;;;;;;;21.63;12.80;;;2.70;99.90;;;;;;5045643;28;20202;-82
2022/01/23 01:34:37;;;;;;;20.00;12.97;;;2.70;99.90;;;;;;5028112;28;20176;-82
2022/01/23 01:37:04;;;;;;;18.97;12.47;;;2.70;99.90;;;;;;5047485;28;20200;-82
2022/01/23 01:39:29;;;;;;;19.93;12.67;;;2.70;99.90;;;;;;5047197;28;20183;-82
2022/01/23 01:41:56;;;;;;;22.97;13.33;;;2.70;99.90;;;;;;5047295;28;20234;-82
2022/01/23 01:44:24;;;;;;;23.10;14.23;;;2.60;99.90;;;;;;5045408;28;20212;-81
2022/01/23 01:46:50;;;;;;;23.60;14.20;;;2.70;99.90;;;;;;5044789;28;20196;-82
2022/01/23 01:49:25;;;;;;;23.00;14.00;;;2.70;99.90;;;;;;5044189;28;20184;-82
2022/01/23 01:51:52;;;;;;;22.53;13.83;;;2.60;99.90;;;;;;5043321;28;20179;-82
2022/01/23 01:54:19;;;;;;;19.87;14.00;;;2.70;99.90;;;;;;5042396;28;20188;-83
2022/01/23 01:56:52;;;;;;;25.13;15.43;;;2.60;99.90;;;;;;5042925;28;20192;-83
2022/01/23 01:59:45;;;;;;;26.40;14.90;;;2.70;99.90;;;;;;5043292;28;20213;-82
2022/01/23 02:10:05;;;;;;;21.00;14.37;;;2.70;99.90;;;;;;5044780;28;20182;-82
2022/01/23 02:22:32;;;;;;;23.13;14.40;;;2.70;99.90;;;;;;5049624;28;20282;-82
2022/01/23 02:50:51;;;;;;;25.10;16.37;;;2.70;99.90;;;;;;5043562;28;20187;-82
2022/01/23 02:55:45;;;;;;;25.03;16.67;;;2.50;99.90;;;;;;5042935;28;20203;-83
2022/01/23 02:58:13;;;;;;;24.73;17.03;;;2.60;99.90;;;;;;5042595;28;20206;-81
2022/01/23 03:00:59;;;;;;;29.30;17.40;;;2.60;99.90;;;;;;5042026;28;20172;-82
2022/01/23 03:03:25;;;;;;;29.20;17.00;;;2.60;99.90;;;;;;5041436;28;20204;-82
2022/01/23 03:11:29;;;;;;;34.10;17.57;;;2.60;99.90;;;;;;5044616;28;20235;-83
2022/01/23 03:14:15;;;;;;;29.70;18.00;;;2.60;99.90;;;;;;5026992;28;20290;-83
2022/01/23 03:24:42;;;;;;;31.23;19.00;;;2.70;99.90;;;;;;5044047;28;20214;-83
2022/01/23 03:32:28;;;;;;;26.80;17.73;;;2.70;99.90;;;;;;5050209;28;20215;-84
2022/01/23 03:34:53;;;;;;;28.30;18.03;;;2.80;99.90;;;;;;5048568;28;20651;-82
2022/01/23 03:37:19;;;;;;;28.63;17.47;;;2.70;99.90;;;;;;5043988;28;20164;-82
2022/01/23 03:39:45;;;;;;;28.67;17.47;;;2.80;99.90;;;;;;5042399;28;20175;-82
2022/01/23 03:42:11;;;;;;;25.53;17.23;;;2.80;99.90;;;;;;5042328;28;20314;-82
2022/01/23 03:44:40;;;;;;;25.37;17.20;;;2.70;99.90;;;;;;5042201;28;20215;-82
2022/01/23 03:47:36;;;;;;;28.67;17.03;;;2.70;99.90;;;;;;5041951;28;20172;-82
2022/01/23 03:50:03;;;;;;;30.57;18.57;;;2.80;99.90;;;;;;5042557;28;20175;-82
2022/01/23 03:52:29;;;;;;;25.43;16.73;;;2.80;99.90;;;;;;5041684;28;20175;-83
2022/01/23 03:54:55;;;;;;;28.60;18.90;;;2.70;99.90;;;;;;5041321;28;20591;-82
2022/01/23 03:57:20;;;;;;;32.27;19.27;;;2.70;99.90;;;;;;5024113;28;20657;-82
2022/01/23 03:59:46;;;;;;;27.60;19.00;;;2.60;99.90;;;;;;5043169;28;20172;-82
2022/01/23 04:02:12;;;;;;;30.33;18.30;;;2.70;99.90;;;;;;5042418;28;20340;-81
2022/01/23 04:04:39;;;;;;;28.00;17.80;;;2.60;99.90;;;;;;5040311;28;20664;-80
2022/01/23 04:07:15;;;;;;;29.73;19.27;;;2.50;99.90;;;;;;5041273;28;20171;-81
2022/01/23 04:09:41;;;;;;;30.47;19.03;;;2.60;99.90;;;;;;5042337;28;20180;-85
2022/01/23 04:12:10;;;;;;;30.50;18.43;;;2.60;99.90;;;;;;5042252;28;20637;-84
2022/01/23 04:14:41;;;;;;;31.27;19.20;;;2.60;99.90;;;;;;5041852;28;20273;-83
2022/01/23 04:47:13;;;;;;;32.10;19.27;;;2.60;99.90;;;;;;5047984;28;20218;-83
2022/01/23 05:00:20;;;;;;;32.10;19.33;;;2.50;99.90;;;;;;5042442;28;20183;-84
2022/01/23 05:05:11;;;;;;;34.50;19.17;;;2.40;99.90;;;;;;5044680;28;20226;-83
2022/01/23 05:07:40;;;;;;;34.10;20.77;;;2.50;99.90;;;;;;5045414;28;20190;-83
2022/01/23 05:10:06;;;;;;;33.50;19.43;;;2.50;99.90;;;;;;5045135;28;20175;-82
2022/01/23 05:12:33;;;;;;;32.67;19.33;;;2.50;99.90;;;;;;5044811;28;20175;-83
2022/01/23 05:14:59;;;;;;;28.67;18.70;;;2.60;99.90;;;;;;5044347;28;20259;-83
2022/01/23 05:17:26;;;;;;;31.33;19.63;;;2.50;99.90;;;;;;5044928;28;20176;-84
2022/01/23 05:19:52;;;;;;;32.47;19.83;;;2.60;99.90;;;;;;5045227;28;20195;-83
2022/01/23 05:24:55;;;;;;;31.50;19.83;;;2.50;99.90;;;;;;5043262;28;20681;-83
2022/01/23 05:27:22;;;;;;;34.87;19.47;;;2.50;99.90;;;;;;5043483;28;20538;-83
2022/01/23 05:29:49;;;;;;;35.00;19.33;;;2.50;99.90;;;;;;5044057;28;20175;-83
2022/01/23 05:32:15;;;;;;;30.03;18.97;;;2.50;99.90;;;;;;5042750;28;20199;-83
2022/01/23 05:34:42;;;;;;;32.03;19.50;;;2.50;99.90;;;;;;5040145;28;20172;-83
2022/01/23 05:37:08;;;;;;;29.60;18.83;;;2.50;99.90;;;;;;5040503;28;20267;-83
2022/01/23 05:39:34;;;;;;;30.50;18.50;;;2.50;99.90;;;;;;5039970;28;20661;-84
2022/01/23 05:42:06;;;;;;;29.70;18.73;;;2.50;99.90;;;;;;5040307;28;20576;-84
2022/01/23 05:44:34;;;;;;;28.47;18.27;;;2.50;99.90;;;;;;5043658;28;20223;-83
2022/01/23 05:46:59;;;;;;;28.30;18.47;;;2.40;99.90;;;;;;5043708;28;20575;-84
2022/01/23 05:49:25;;;;;;;26.93;18.07;;;2.40;99.90;;;;;;5042853;28;20203;-83
2022/01/23 05:51:50;;;;;;;28.07;17.40;;;2.40;99.90;;;;;;5039821;28;20176;-84
2022/01/23 05:54:16;;;;;;;24.50;16.60;;;2.40;99.90;;;;;;5039607;28;20180;-84
2022/01/23 05:56:42;;;;;;;30.93;20.20;;;2.50;99.90;;;;;;5039301;28;20535;-83
2022/01/23 05:59:07;;;;;;;28.83;18.70;;;2.50;99.90;;;;;;5038842;28;20266;-84
2022/01/23 06:01:33;;;;;;;31.27;17.60;;;2.40;99.90;;;;;;5021347;28;20172;-83
2022/01/23 06:03:58;;;;;;;30.57;18.07;;;2.40;99.90;;;;;;5042770;28;20842;-83
2022/01/23 06:06:24;;;;;;;24.77;17.70;;;2.40;99.90;;;;;;5042155;28;20268;-83
2022/01/23 06:08:49;;;;;;;26.67;17.50;;;2.50;99.90;;;;;;5042904;28;20207;-82
2022/01/23 06:11:16;;;;;;;23.40;15.93;;;2.40;99.90;;;;;;5043883;28;20175;-83
2022/01/23 06:13:41;;;;;;;27.13;17.23;;;2.50;99.90;;;;;;5043602;28;20183;-82
2022/01/23 06:16:07;;;;;;;28.30;18.03;;;2.40;99.90;;;;;;5044078;28;20195;-82
2022/01/23 06:18:35;;;;;;;30.50;17.87;;;2.50;99.90;;;;;;5045235;28;20175;-83
2022/01/23 06:21:01;;;;;;;26.40;17.57;;;2.60;99.90;;;;;;5046448;28;20211;-83
2022/01/23 06:23:29;;;;;;;32.47;18.33;;;2.50;99.90;;;;;;5047492;28;20207;-84
2022/01/23 06:25:56;;;;;;;28.73;18.37;;;2.60;99.90;;;;;;5046555;28;20204;-83
2022/01/23 06:28:31;;;;;;;29.27;18.27;;;2.50;99.90;;;;;;5052443;28;20171;-82
2022/01/23 06:30:56;;;;;;;32.70;19.40;;;2.50;99.90;;;;;;5054786;28;20198;-81
2022/01/23 06:33:22;;;;;;;148.70;98.83;;;2.50;99.90;;;;;;5065839;22;20230;-77
2022/01/23 06:35:47;;;;;;;74.63;51.63;;;2.40;99.90;;;;;;5051261;28;20579;-76
2022/01/23 06:38:13;;;;;;;106.83;71.87;;;2.50;99.90;;;;;;5052182;28;20171;-76
2022/01/23 06:40:38;;;;;;;45.87;31.67;;;2.50;99.90;;;;;;5052066;28;20171;-76
2022/01/23 06:43:04;;;;;;;32.87;20.03;;;2.50;99.90;;;;;;5051938;28;20547;-77
2022/01/23 06:45:29;;;;;;;28.93;18.93;;;2.50;99.90;;;;;;5053124;28;20298;-76
2022/01/23 06:47:55;;;;;;;29.20;18.77;;;2.50;99.90;;;;;;5056038;28;20228;-77
2022/01/23 06:50:20;;;;;;;31.63;18.37;;;2.50;99.90;;;;;;5055839;28;20724;-76
2022/01/23 06:52:46;;;;;;;32.00;20.23;;;2.50;99.90;;;;;;5056183;28;20181;-75
2022/01/23 06:55:12;;;;;;;31.10;18.37;;;2.50;99.90;;;;;;5055388;28;20201;-74
2022/01/23 06:57:37;;;;;;;27.87;18.90;;;2.60;99.90;;;;;;5055936;28;20183;-75
2022/01/23 07:00:05;;;;;;;27.70;18.63;;;2.60;99.90;;;;;;5055826;28;20171;-76
2022/01/23 07:02:31;;;;;;;34.13;19.63;;;2.50;99.90;;;;;;5055579;28;20175;-75
2022/01/23 07:04:56;;;;;;;34.37;19.33;;;2.60;99.90;;;;;;5055677;28;20245;-76
2022/01/23 07:07:22;;;;;;;28.33;17.97;;;2.50;99.90;;;;;;5055645;28;20185;-75
2022/01/23 07:09:48;;;;;;;29.37;18.93;;;2.40;99.90;;;;;;5055766;28;20262;-76
2022/01/23 07:12:13;;;;;;;30.17;18.73;;;2.40;99.90;;;;;;5055459;28;20179;-76
2022/01/23 07:14:39;;;;;;;30.07;19.27;;;2.50;99.90;;;;;;5054866;28;20177;-76
2022/01/23 07:17:05;;;;;;;32.23;20.03;;;2.50;99.90;;;;;;5055902;28;20238;-75
2022/01/23 07:19:30;;;;;;;35.53;20.03;;;2.50;99.90;;;;;;5055249;28;20202;-76
2022/01/23 07:21:56;;;;;;;32.83;19.37;;;2.50;99.90;;;;;;5057836;28;20728;-73
2022/01/23 07:24:23;;;;;;;32.03;19.83;;;2.50;99.90;;;;;;5063919;28;20195;-74
2022/01/23 07:26:48;;;;;;;34.70;20.23;;;2.60;99.90;;;;;;5058740;28;20633;-74
2022/01/23 07:29:16;;;;;;;32.73;19.60;;;2.60;99.90;;;;;;5055080;28;20274;-75
2022/01/23 07:34:09;;;;;;;35.13;19.77;;;2.70;99.90;;;;;;5054881;28;20292;-73
2022/01/23 07:36:36;;;;;;;29.93;18.10;;;2.60;99.90;;;;;;5061891;28;20202;-74
2022/01/23 07:39:03;;;;;;;34.10;19.53;;;2.70;99.90;;;;;;5063650;28;20179;-76
2022/01/23 07:41:29;;;;;;;35.40;19.30;;;2.70;99.90;;;;;;5072005;28;20231;-76
2022/01/23 07:43:55;;;;;;;32.03;18.70;;;2.70;99.90;;;;;;5074851;28;20217;-76
2022/01/23 07:46:21;;;;;;;29.50;18.33;;;2.80;99.90;;;;;;5074176;28;20206;-75
2022/01/23 07:48:47;;;;;;;29.10;18.53;;;2.80;99.90;;;;;;5074694;28;20228;-76
2022/01/23 07:51:13;;;;;;;27.73;17.97;;;2.80;99.90;;;;;;5056660;28;20262;-76
2022/01/23 07:53:38;;;;;;;32.50;19.83;;;2.90;99.90;;;;;;5059360;28;20170;-77
2022/01/23 07:56:04;;;;;;;31.30;18.37;;;3.00;99.90;;;;;;5063387;28;20353;-78
2022/01/23 07:58:30;;;;;;;29.87;19.17;;;3.00;99.90;;;;;;5053787;28;20305;-77
2022/01/23 08:00:55;;;;;;;32.33;18.93;;;2.90;99.90;;;;;;5053633;28;20206;-77
2022/01/23 08:03:21;;;;;;;27.90;18.13;;;2.90;99.90;;;;;;5054056;28;20176;-76
2022/01/23 08:05:46;;;;;;;31.97;17.80;;;3.00;99.90;;;;;;5053647;28;20203;-76
2022/01/23 08:08:12;;;;;;;28.03;19.20;;;2.90;99.90;;;;;;5053940;28;20172;-76
2022/01/23 08:10:38;;;;;;;31.23;19.90;;;3.00;99.90;;;;;;5054670;28;20275;-77
2022/01/23 08:13:05;;;;;;;30.00;18.70;;;3.00;99.90;;;;;;5054276;28;20180;-76
2022/01/23 08:15:31;;;;;;;30.70;18.43;;;3.10;99.90;;;;;;5053325;28;20227;-76
2022/01/23 08:18:06;;;;;;;29.57;18.90;;;3.10;99.90;;;;;;5053204;28;20194;-76
2022/01/23 08:20:33;;;;;;;35.07;19.40;;;3.20;99.90;;;;;;5053724;28;20181;-76
2022/01/23 08:23:01;;;;;;;30.40;18.17;;;3.20;99.90;;;;;;5047402;28;20237;-77
2022/01/23 08:25:28;;;;;;;33.00;18.53;;;3.20;99.90;;;;;;5053305;28;20751;-76
2022/01/23 08:27:54;;;;;;;31.53;18.53;;;3.00;99.90;;;;;;5053886;28;20179;-76
2022/01/23 08:30:20;;;;;;;35.33;21.03;;;3.00;99.90;;;;;;5053986;28;20684;-75
2022/01/23 08:32:46;;;;;;;34.30;19.33;;;3.00;99.90;;;;;;5053813;28;20195;-76
2022/01/23 08:35:11;;;;;;;28.20;18.70;;;3.10;99.90;;;;;;5057016;28;20225;-74
2022/01/23 08:37:37;;;;;;;30.73;18.30;;;3.10;99.90;;;;;;5062657;28;20183;-77
2022/01/23 08:40:04;;;;;;;30.63;18.50;;;3.00;99.90;;;;;;5051433;28;20186;-76
2022/01/23 08:42:31;;;;;;;33.67;19.57;;;3.20;99.90;;;;;;5050829;28;20187;-77
2022/01/23 08:44:56;;;;;;;32.23;18.43;;;3.30;99.90;;;;;;5050974;28;20207;-77
2022/01/23 08:47:23;;;;;;;33.27;18.93;;;3.20;99.90;;;;;;5054259;28;20644;-78
2022/01/23 08:49:49;;;;;;;34.13;19.30;;;3.20;99.90;;;;;;5058446;28;20179;-79
2022/01/23 08:52:20;;;;;;;32.67;20.53;;;3.30;99.90;;;;;;5055753;28;20554;-78
2022/01/23 08:54:49;;;;;;;29.83;19.37;;;3.30;99.90;;;;;;5073295;28;20181;-78
2022/01/23 08:57:16;;;;;;;32.40;19.07;;;3.50;99.90;;;;;;5074371;28;20217;-77
2022/01/23 08:59:42;;;;;;;29.87;19.40;;;3.40;99.90;;;;;;5073433;28;20630;-77
2022/01/23 09:02:09;;;;;;;29.90;19.43;;;3.50;99.90;;;;;;5073875;28;20218;-78
2022/01/23 09:04:34;;;;;;;31.40;17.93;;;3.50;99.90;;;;;;5073533;28;20271;-75
2022/01/23 09:07:00;;;;;;;30.33;17.97;;;3.40;99.90;;;;;;5054088;28;20203;-78
2022/01/23 09:09:30;;;;;;;30.17;18.83;;;3.50;99.90;;;;;;5050526;28;20179;-76
2022/01/23 09:12:07;;;;;;;29.40;18.73;;;3.60;99.90;;;;;;5054005;28;20715;-77
2022/01/23 09:14:33;;;;;;;31.17;18.13;;;3.50;99.90;;;;;;5052713;28;20245;-76
2022/01/23 09:17:02;;;;;;;31.80;18.37;;;3.60;99.90;;;;;;5043481;28;20230;-76
2022/01/23 09:19:29;;;;;;;31.27;19.10;;;3.60;99.90;;;;;;5043204;28;20185;-74
2022/01/23 09:21:56;;;;;;;29.13;18.57;;;3.60;99.90;;;;;;5036082;28;20176;-74
2022/01/23 09:24:25;;;;;;;35.10;18.03;;;3.50;99.90;;;;;;5033742;28;20218;-75
2022/01/23 09:26:53;;;;;;;27.67;17.53;;;3.60;99.90;;;;;;5033971;28;20238;-77
2022/01/23 09:29:38;;;;;;;29.03;17.23;;;3.80;99.90;;;;;;5034777;28;20219;-76
2022/01/23 09:32:16;;;;;;;29.00;17.33;;;3.80;99.90;;;;;;5031968;28;20191;-75
2022/01/23 09:34:43;;;;;;;31.57;18.70;;;3.90;99.90;;;;;;5031926;28;20206;-75
2022/01/23 09:37:11;;;;;;;34.70;20.33;;;3.90;99.90;;;;;;5041235;28;20193;-74
2022/01/23 09:39:39;;;;;;;28.83;18.43;;;4.00;99.90;;;;;;5057117;28;20182;-76
2022/01/23 09:42:26;;;;;;;25.63;17.27;;;4.00;99.90;;;;;;5054930;28;20233;-78
2022/01/23 09:44:57;;;;;;;28.23;17.77;;;4.00;99.90;;;;;;5051016;28;20207;-79
2022/01/23 09:47:23;;;;;;;27.67;16.93;;;3.90;99.90;;;;;;5053390;28;20263;-76
2022/01/23 09:49:51;;;;;;;28.57;18.77;;;3.80;99.90;;;;;;5052294;28;20265;-77
2022/01/23 09:52:19;;;;;;;29.10;17.80;;;3.70;99.90;;;;;;5053772;28;20171;-77
2022/01/23 09:54:55;;;;;;;29.77;18.20;;;3.80;99.90;;;;;;5054273;28;20179;-77
2022/01/23 09:57:25;;;;;;;29.23;16.90;;;3.90;99.90;;;;;;5051767;28;20203;-76
2022/01/23 09:59:55;;;;;;;25.50;17.00;;;4.00;99.90;;;;;;5051630;28;20175;-77
2022/01/23 10:02:23;;;;;;;29.30;17.90;;;4.20;99.90;;;;;;5051098;28;20229;-75
2022/01/23 10:04:50;;;;;;;27.63;16.57;;;4.40;99.90;;;;;;5050915;28;20866;-76
2022/01/23 10:07:16;;;;;;;25.93;16.67;;;4.50;99.90;;;;;;5051279;28;20237;-75
2022/01/23 10:09:42;;;;;;;25.73;17.27;;;4.40;99.90;;;;;;5051550;28;20258;-76
2022/01/23 10:12:09;;;;;;;27.13;16.97;;;4.40;99.90;;;;;;5051273;28;20171;-75
2022/01/23 10:14:35;;;;;;;26.37;16.77;;;4.40;99.90;;;;;;5050877;28;20177;-75
2022/01/23 10:17:02;;;;;;;24.43;17.33;;;4.30;99.90;;;;;;5051616;28;20195;-75
2022/01/23 10:19:27;;;;;;;28.53;17.43;;;4.10;99.90;;;;;;5051222;28;20278;-76
2022/01/23 10:21:53;;;;;;;25.20;17.03;;;4.40;99.90;;;;;;5051975;28;20703;-76
2022/01/23 10:24:18;;;;;;;23.67;17.17;;;4.50;99.90;;;;;;5051698;28;20717;-77
2022/01/23 10:26:48;;;;;;;27.17;17.67;;;4.60;99.90;;;;;;5054245;28;20195;-77
2022/01/23 10:29:25;;;;;;;27.73;17.53;;;4.60;99.90;;;;;;5057766;28;20182;-77
2022/01/23 10:32:21;;;;;;;23.77;14.97;;;4.60;99.90;;;;;;5052904;28;20673;-77
2022/01/23 10:34:59;;;;;;;24.13;14.87;;;4.70;99.90;;;;;;5033611;28;20184;-80
2022/01/23 10:37:35;;;;;;;24.13;15.90;;;4.70;91.20;;;;;;5033537;28;20180;-78
2022/01/23 10:40:22;;;;;;;21.53;14.73;;;4.60;99.90;;;;;;5034624;28;20206;-78
2022/01/23 10:50:51;;;;;;;18.10;13.23;;;4.60;99.90;;;;;;5061079;28;20206;-76
2022/01/23 10:53:16;;;;;;;21.20;15.43;;;4.70;78.10;;;;;;5060898;28;20170;-78
2022/01/23 10:55:43;;;;;;;24.07;16.80;;;4.70;84.50;;;;;;5062915;28;20188;-78
2022/01/23 10:58:24;;;;;;;25.63;17.07;;;4.80;60.50;;;;;;5059974;28;20171;-79
2022/01/23 11:00:50;;;;;;;22.57;16.00;;;4.70;53.50;;;;;;5043444;28;20171;-77
2022/01/23 11:03:26;;;;;;;24.80;17.20;;;4.70;99.90;;;;;;5062313;28;20182;-77
2022/01/23 11:05:52;;;;;;;23.00;16.57;;;4.80;78.30;;;;;;5071839;28;20240;-78
2022/01/23 11:08:30;;;;;;;25.50;16.47;;;4.70;58.10;;;;;;5073283;28;20667;-77
2022/01/23 11:10:57;;;;;;;26.80;17.67;;;4.60;92.40;;;;;;5074089;28;20549;-78
2022/01/23 11:19:39;;;;;;;29.63;18.93;;;4.40;99.90;;;;;;5058551;28;20824;-77
2022/01/23 11:22:05;;;;;;;26.23;17.93;;;4.60;99.90;;;;;;5052685;28;20182;-79
2022/01/23 11:24:37;;;;;;;22.80;15.13;;;4.70;94.30;;;;;;5053059;28;20704;-77
2022/01/23 11:27:04;;;;;;;21.30;14.47;;;4.70;67.50;;;;;;5054673;28;20172;-77
2022/01/23 11:29:31;;;;;;;21.93;14.90;;;4.80;17.00;;;;;;5050922;28;20203;-78
2022/01/23 11:31:57;;;;;;;23.93;16.27;;;4.90;58.60;;;;;;5045450;28;20196;-77
2022/01/23 11:34:26;;;;;;;22.73;15.60;;;5.00;25.00;;;;;;5037072;28;20711;-79
2022/01/23 11:36:52;;;;;;;26.57;15.90;;;4.90;1.00;;;;;;5037457;28;20191;-78
2022/01/23 11:39:37;;;;;;;23.33;15.67;;;4.90;11.70;;;;;;5039064;28;20195;-78
2022/01/23 11:56:35;;;;;;;28.23;18.97;;;5.10;53.40;;;;;;5053877;28;20342;-78
2022/01/23 11:59:17;;;;;;;24.77;17.23;;;5.00;1.00;;;;;;5064464;28;20178;-78
2022/01/23 12:01:46;;;;;;;26.30;17.13;;;5.00;1.00;;;;;;5055731;28;20225;-79
2022/01/23 12:04:18;;;;;;;25.60;16.70;;;5.20;1.00;;;;;;5054257;28;20210;-79
2022/01/23 12:07:04;;;;;;;22.37;14.93;;;5.10;1.00;;;;;;5055470;28;20256;-78
2022/01/23 12:09:30;;;;;;;20.60;15.23;;;5.10;1.00;;;;;;5054327;28;20178;-79
2022/01/23 12:12:19;;;;;;;20.90;14.83;;;5.50;1.00;;;;;;5055559;28;20543;-78
2022/01/23 12:17:13;;;;;;;19.97;13.93;;;5.60;1.00;;;;;;5056087;28;20233;-78
2022/01/23 12:20:10;;;;;;;14.90;11.43;;;5.80;1.00;;;;;;5058153;28;20180;-79
2022/01/23 12:22:42;;;;;;;15.77;12.10;;;5.60;1.00;;;;;;5025433;28;20179;-78
2022/01/23 12:25:24;;;;;;;17.30;12.87;;;5.40;1.00;;;;;;5054776;28;20222;-78
2022/01/23 12:28:12;;;;;;;17.17;12.33;;;5.70;1.00;;;;;;5036396;28;20232;-78
2022/01/23 12:30:40;;;;;;;17.43;11.90;;;5.50;1.00;;;;;;5054246;28;20649;-78
2022/01/23 12:33:15;;;;;;;17.37;12.83;;;5.70;1.00;;;;;;5093235;22;21699;-77
2022/01/23 12:35:44;;;;;;;16.60;11.87;;;5.90;1.00;;;;;;5056674;28;20210;-77
2022/01/23 12:38:13;;;;;;;15.13;12.67;;;5.90;99.90;;;;;;5055580;28;20194;-77
2022/01/23 12:40:45;;;;;;;17.23;12.70;;;6.10;99.90;;;;;;5055914;28;20274;-77
2022/01/23 12:43:24;;;;;;;18.27;13.20;;;6.40;99.90;;;;;;5054922;28;20176;-77
2022/01/23 12:46:08;;;;;;;17.00;12.53;;;6.50;1.00;;;;;;5055417;28;20214;-78
2022/01/23 12:48:38;;;;;;;12.90;9.40;;;6.60;1.00;;;;;;5054755;28;20215;-77
2022/01/23 12:51:06;;;;;;;13.87;10.23;;;6.00;99.90;;;;;;5052763;28;20175;-76
2022/01/23 12:53:58;;;;;;;17.67;11.40;;;5.90;1.00;;;;;;5052706;28;20219;-76
2022/01/23 12:56:34;;;;;;;14.73;10.43;;;6.00;1.00;;;;;;5052055;28;20198;-77
2022/01/23 12:59:07;;;;;;;14.20;11.10;;;5.70;99.90;;;;;;5052546;28;20167;-77
2022/01/23 13:01:34;;;;;;;14.90;11.00;;;5.40;1.00;;;;;;5052576;28;20168;-76
2022/01/23 13:04:03;;;;;;;17.27;10.97;;;5.50;1.00;;;;;;5052474;28;20309;-76
2022/01/23 13:06:42;;;;;;;15.67;10.50;;;5.70;1.00;;;;;;5051979;28;20202;-76
2022/01/23 13:31:53;;;;;;;6.03;4.17;;;6.70;99.90;;;;;;5052545;28;20552;-76
2022/01/23 13:34:30;;;;;;;4.13;3.50;;;6.40;99.90;;;;;;5067853;28;20251;-78
2022/01/23 13:36:58;;;;;;;4.40;3.63;;;6.20;1.00;;;;;;5072636;28;20202;-77
2022/01/23 13:39:38;;;;;;;6.03;4.20;;;5.90;99.90;;;;;;5072778;28;20185;-76
2022/01/23 13:59:25;;;;;;;7.73;5.10;;;5.80;1.00;;;;;;5051530;28;20232;-76
2022/01/23 14:02:09;;;;;;;8.90;6.73;;;5.80;1.00;;;;;;5048821;28;20256;-76
2022/01/23 14:04:40;;;;;;;8.20;5.50;;;5.80;99.90;;;;;;5049614;28;20336;-77
2022/01/23 14:07:06;;;;;;;6.30;4.83;;;5.60;1.00;;;;;;5050974;28;20302;-78
2022/01/23 14:09:43;;;;;;;6.97;5.37;;;5.60;1.00;;;;;;5050639;28;20187;-76
2022/01/23 14:12:14;;;;;;;9.43;5.67;;;5.70;99.90;;;;;;5053901;28;20192;-78
2022/01/23 14:14:52;;;;;;;6.40;5.10;;;5.20;1.00;;;;;;5060555;28;20189;-77
2022/01/23 14:17:19;;;;;;;6.90;4.53;;;5.30;73.30;;;;;;5058607;28;20553;-76
2022/01/23 14:20:08;;;;;;;8.53;5.10;;;5.40;1.00;;;;;;5061385;28;20183;-78
2022/01/23 14:22:36;;;;;;;7.20;5.00;;;5.30;1.00;;;;;;5061547;28;20171;-77
2022/01/23 14:25:16;;;;;;;6.00;3.80;;;5.30;1.00;;;;;;5057382;28;20406;-77
2022/01/23 14:28:02;;;;;;;4.23;3.60;;;5.40;99.90;;;;;;5055469;28;20225;-77
2022/01/23 14:30:29;;;;;;;4.87;3.63;;;5.30;1.00;;;;;;5050397;28;20184;-76
2022/01/23 14:33:04;;;;;;;6.07;3.60;;;5.20;1.00;;;;;;5061552;28;20174;-77
2022/01/23 14:35:31;;;;;;;7.07;4.13;;;5.10;99.90;;;;;;5056798;28;20281;-76
2022/01/23 14:38:15;;;;;;;5.70;4.60;;;5.10;99.90;;;;;;5056784;28;20190;-76
2022/01/23 14:41:07;;;;;;;6.13;4.23;;;5.30;99.90;;;;;;5060346;28;20190;-76
2022/01/23 14:43:41;;;;;;;5.07;3.67;;;5.10;1.00;;;;;;5053751;28;20656;-76
2022/01/23 14:46:09;;;;;;;5.80;4.77;;;5.00;1.00;;;;;;5056348;28;20203;-77
2022/01/23 14:48:44;;;;;;;5.57;4.47;;;5.00;1.00;;;;;;5052695;28;20171;-76
2022/01/23 14:51:10;;;;;;;5.30;3.97;;;4.90;1.00;;;;;;5053203;28;20202;-76
2022/01/23 14:53:38;;;;;;;6.50;4.83;;;5.00;99.90;;;;;;5051888;28;20175;-77
2022/01/23 14:56:07;;;;;;;7.13;5.20;;;5.20;1.00;;;;;;5051080;28;20561;-76
2022/01/23 14:58:34;;;;;;;9.10;5.80;;;5.00;21.90;;;;;;5053076;28;20697;-76
2022/01/23 15:01:01;;;;;;;8.10;5.53;;;5.00;1.00;;;;;;5054469;28;20199;-75
2022/01/23 15:03:28;;;;;;;6.67;5.30;;;5.00;1.00;;;;;;5051258;28;20203;-75
2022/01/23 15:05:54;;;;;;;8.70;5.60;;;5.10;99.90;;;;;;5050645;28;20229;-76
2022/01/23 15:08:24;;;;;;;8.57;6.10;;;5.10;99.90;;;;;;5055075;28;20240;-75
2022/01/23 15:10:55;;;;;;;7.13;5.67;;;5.00;95.10;;;;;;5054424;28;20189;-75
2022/01/23 15:13:23;;;;;;;8.07;6.00;;;5.00;99.90;;;;;;5054483;28;20190;-75
2022/01/23 15:15:50;;;;;;;10.93;7.87;;;4.90;1.00;;;;;;5053762;28;20203;-75
2022/01/23 15:18:16;;;;;;;13.70;8.77;;;5.00;1.00;;;;;;5054336;28;20625;-76
2022/01/23 15:20:42;;;;;;;10.07;7.07;;;5.00;1.00;;;;;;5054029;28;20179;-76
2022/01/23 15:23:08;;;;;;;9.83;6.87;;;5.00;99.90;;;;;;5054635;28;20260;-75
2022/01/23 15:25:34;;;;;;;10.13;6.80;;;4.90;1.00;;;;;;5053531;28;20223;-75
2022/01/23 15:28:00;;;;;;;8.93;6.67;;;4.90;1.00;;;;;;5054343;28;20296;-75
2022/01/23 15:30:26;;;;;;;10.33;6.80;;;4.90;1.00;;;;;;5054014;28;20497;-75
2022/01/23 15:32:53;;;;;;;10.57;6.20;;;4.90;1.00;;;;;;5053767;28;20182;-75
2022/01/23 15:35:21;;;;;;;11.03;6.17;;;4.80;99.90;;;;;;5053883;28;20291;-75
2022/01/23 15:37:46;;;;;;;8.60;5.90;;;4.90;99.90;;;;;;5036013;28;20175;-75
2022/01/23 15:40:14;;;;;;;8.50;5.90;;;4.90;1.00;;;;;;5054617;28;20547;-75
2022/01/23 15:42:41;;;;;;;9.73;6.37;;;4.80;99.90;;;;;;5054138;28;20182;-74
2022/01/23 15:45:08;;;;;;;8.47;5.93;;;4.80;1.00;;;;;;5053651;28;20590;-74
2022/01/23 15:47:34;;;;;;;8.07;5.93;;;4.80;1.00;;;;;;5054074;28;20190;-74
2022/01/23 15:50:00;;;;;;;8.70;5.73;;;4.80;1.00;;;;;;5054214;28;20263;-74
2022/01/23 15:52:26;;;;;;;9.23;6.17;;;4.80;1.00;;;;;;5073355;28;20181;-74
2022/01/23 15:54:52;;;;;;;8.57;6.20;;;4.80;1.00;;;;;;5073721;28;20589;-74
2022/01/23 15:57:17;;;;;;;8.30;6.27;;;4.80;99.90;;;;;;5073759;28;20178;-75
2022/01/23 15:59:43;;;;;;;8.80;5.53;;;4.70;1.00;;;;;;5066262;28;20210;-75
2022/01/23 16:02:09;;;;;;;36.83;19.33;;;4.60;1.00;;;;;;5054178;28;20207;-76
2022/01/23 16:04:37;;;;;;;7.87;5.50;;;4.70;1.00;;;;;;5051855;28;20613;-74
2022/01/23 16:07:04;;;;;;;10.60;6.20;;;4.80;99.90;;;;;;5053629;28;20257;-75
2022/01/23 16:09:30;;;;;;;9.10;6.10;;;4.80;1.00;;;;;;5053788;28;20179;-74
2022/01/23 16:11:55;;;;;;;9.07;5.97;;;4.70;1.00;;;;;;5054003;28;20171;-74
2022/01/23 16:14:21;;;;;;;8.03;5.67;;;4.70;1.00;;;;;;5053380;28;20183;-75
2022/01/23 16:16:48;;;;;;;7.43;5.17;;;4.60;1.00;;;;;;5053280;28;20215;-75
2022/01/23 16:19:14;;;;;;;7.53;5.47;;;4.70;1.00;;;;;;5053518;28;20175;-75
2022/01/23 16:21:41;;;;;;;9.17;5.90;;;4.60;94.20;;;;;;5053559;28;20887;-74